Time;durP1;ratioP1;P1;durP2;ratioP2;P2;SDS_P1;SDS_P2;PMS_P1;PMS_P2;Temp;Humidity;BMP_temperature;BMP_pressure;BME280_temperature;BME280_humidity;BME280_pressure;Samples;Min_cycle;Max_cycle;Signal;HPM_P1;HPM_P2
2022/04/14 00:06:14;;;;;;;2.42;0.85;;;;;;;;;;20283938;29;20074;-84
2022/04/14 00:16:15;;;;;;;1.75;1.00;;;;;;;;;;20283165;29;20129;-84
2022/04/14 00:26:17;;;;;;;1.25;0.98;;;;;;;;;;20282972;29;20131;-84
2022/04/14 00:36:19;;;;;;;1.58;1.08;;;;;;;;;;20281692;29;20146;-83
2022/04/14 00:46:22;;;;;;;1.73;0.90;;;;;;;;;;20283759;29;20067;-83
2022/04/14 00:56:23;;;;;;;1.95;0.90;;;;;;;;;;20264459;29;20048;-84
2022/04/14 01:06:26;;;;;;;1.77;1.13;;;;;;;;;;20261486;29;20057;-83
2022/04/14 01:16:28;;;;;;;1.98;0.77;;;;;;;;;;20260577;29;20604;-83
2022/04/14 01:26:30;;;;;;;1.60;0.95;;;;;;;;;;20253054;29;20048;-83
2022/04/14 01:36:31;;;;;;;1.35;0.90;;;;;;;;;;20256892;29;20040;-83
2022/04/14 01:46:33;;;;;;;2.53;1.17;;;;;;;;;;20232819;29;20048;-83
2022/04/14 01:56:35;;;;;;;0.85;0.85;;;;;;;;;;20246056;29;20091;-83
2022/04/14 02:06:36;;;;;;;0.88;0.80;;;;;;;;;;20251637;29;20509;-83
2022/04/14 02:16:38;;;;;;;1.20;0.93;;;;;;;;;;20236254;29;20044;-84
2022/04/14 02:26:40;;;;;;;1.10;0.90;;;;;;;;;;20248717;29;20047;-83
2022/04/14 02:36:42;;;;;;;1.90;1.10;;;;;;;;;;20230702;29;20049;-85
2022/04/14 02:46:43;;;;;;;2.03;0.90;;;;;;;;;;20245571;29;20049;-87
2022/04/14 02:56:45;;;;;;;1.35;1.00;;;;;;;;;;20244278;29;20444;-85
2022/04/14 03:06:47;;;;;;;1.52;1.23;;;;;;;;;;20233550;29;20136;-83
2022/04/14 03:16:49;;;;;;;1.67;1.05;;;;;;;;;;20244379;29;20045;-84
2022/04/14 03:26:51;;;;;;;1.33;1.00;;;;;;;;;;20244663;29;20605;-83
2022/04/14 03:36:53;;;;;;;1.10;1.00;;;;;;;;;;20264871;29;20126;-82
2022/04/14 03:46:55;;;;;;;1.02;1.00;;;;;;;;;;20250666;29;20400;-84
2022/04/14 03:56:57;;;;;;;1.33;1.23;;;;;;;;;;20284411;29;20051;-83
2022/04/14 04:06:59;;;;;;;1.23;1.10;;;;;;;;;;20284903;29;20570;-83
2022/04/14 04:17:01;;;;;;;1.85;1.30;;;;;;;;;;20266656;29;20064;-82
2022/04/14 04:27:03;;;;;;;1.55;1.35;;;;;;;;;;20266313;29;20123;-83
2022/04/14 04:37:05;;;;;;;1.52;1.30;;;;;;;;;;20280923;29;20049;-84
2022/04/14 04:47:07;;;;;;;1.60;1.25;;;;;;;;;;20249243;29;20052;-82
2022/04/14 04:57:09;;;;;;;1.33;1.05;;;;;;;;;;20262593;29;20452;-86
2022/04/14 05:07:11;;;;;;;1.20;1.10;;;;;;;;;;20273174;29;20104;-82
2022/04/14 05:17:12;;;;;;;1.80;1.50;;;;;;;;;;20273335;29;20063;-82
2022/04/14 05:27:15;;;;;;;2.90;1.40;;;;;;;;;;20272303;29;20056;-82
2022/04/14 05:37:16;;;;;;;2.28;1.58;;;;;;;;;;20271410;29;20392;-80
2022/04/14 05:47:18;;;;;;;1.33;1.00;;;;;;;;;;20270246;29;20055;-82
2022/04/14 05:57:22;;;;;;;1.80;1.02;;;;;;;;;;20252849;29;20108;-82
2022/04/14 06:07:24;;;;;;;3.22;1.52;;;;;;;;;;20269087;29;20554;-82
2022/04/14 06:17:25;;;;;;;2.13;1.35;;;;;;;;;;20249620;29;20135;-83
2022/04/14 06:27:28;;;;;;;3.65;1.60;;;;;;;;;;20227598;29;20048;-82
2022/04/14 06:37:30;;;;;;;2.40;1.20;;;;;;;;;;20189236;29;20053;-81
2022/04/14 06:47:32;;;;;;;4.15;1.05;;;;;;;;;;20188610;29;20053;-84
2022/04/14 06:57:34;;;;;;;2.40;1.30;;;;;;;;;;20188392;29;20501;-85
2022/04/14 07:07:35;;;;;;;2.40;1.58;;;;;;;;;;20187212;29;20065;-81
2022/04/14 07:17:37;;;;;;;1.98;1.30;;;;;;;;;;20172439;29;20063;-81
2022/04/14 07:27:40;;;;;;;3.08;1.15;;;;;;;;;;20262933;29;20056;-80
2022/04/14 07:37:42;;;;;;;2.35;1.20;;;;;;;;;;20241681;29;20048;-80
2022/04/14 07:47:44;;;;;;;3.38;1.42;;;;;;;;;;20222633;29;20060;-80
2022/04/14 07:57:47;;;;;;;2.50;1.40;;;;;;;;;;20260632;29;20447;-79
2022/04/14 08:07:48;;;;;;;3.95;1.80;;;;;;;;;;20253158;29;20067;-80
2022/04/14 08:17:50;;;;;;;3.53;1.63;;;;;;;;;;20246431;29;20055;-79
2022/04/14 08:27:53;;;;;;;3.17;1.92;;;;;;;;;;20234446;29;20059;-80
2022/04/14 08:37:55;;;;;;;3.90;1.80;;;;;;;;;;20256887;29;20109;-80
2022/04/14 08:47:58;;;;;;;2.83;1.65;;;;;;;;;;20252514;29;20140;-81
2022/04/14 08:58:00;;;;;;;2.78;1.67;;;;;;;;;;20274400;29;20139;-83
2022/04/14 09:08:02;;;;;;;2.95;1.70;;;;;;;;;;20257357;29;20084;-84
2022/04/14 09:18:04;;;;;;;3.97;1.70;;;;;;;;;;20256295;29;20058;-82
2022/04/14 09:28:10;;;;;;;2.63;1.90;;;;;;;;;;20270967;29;20056;-81
2022/04/14 09:38:13;;;;;;;2.20;1.85;;;;;;;;;;20271296;29;20472;-80
2022/04/14 09:48:18;;;;;;;2.70;1.77;;;;;;;;;;20270738;29;20056;-81
2022/04/14 09:58:20;;;;;;;2.55;1.70;;;;;;;;;;20252875;29;20041;-79
2022/04/14 10:08:27;;;;;;;1.83;1.50;;;;;;;;;;20269539;29;20144;-83
2022/04/14 10:18:30;;;;;;;4.90;2.88;;;;;;;;;;20268176;29;20041;-79
2022/04/14 10:28:32;;;;;;;2.20;1.60;;;;;;;;;;20267429;29;20532;-79
2022/04/14 10:38:35;;;;;;;3.25;1.70;;;;;;;;;;20266628;29;20404;-79
2022/04/14 10:48:40;;;;;;;2.67;1.70;;;;;;;;;;20266183;29;20053;-79
2022/04/14 10:58:52;;;;;;;2.53;2.00;;;;;;;;;;20265493;29;20052;-80
2022/04/14 11:08:53;;;;;;;2.30;2.03;;;;;;;;;;20265287;29;20055;-80
2022/04/14 11:19:14;;;;;;;2.45;1.35;;;;;;;;;;20264882;29;20103;-81
2022/04/14 11:29:30;;;;;;;2.17;1.55;;;;;;;;;;20264467;29;20067;-85
2022/04/14 11:39:33;;;;;;;1.45;1.20;;;;;;;;;;20264557;29;20063;-80
2022/04/14 11:49:35;;;;;;;2.72;1.42;;;;;;;;;;20270180;29;20071;-82
2022/04/14 11:59:38;;;;;;;1.10;1.00;;;;;;;;;;20278496;29;20040;-81
2022/04/14 12:09:40;;;;;;;1.77;1.17;;;;;;;;;;20279295;29;20183;-81
2022/04/14 12:19:43;;;;;;;1.80;1.23;;;;;;;;;;20277213;29;20048;-81
2022/04/14 12:29:45;;;;;;;1.30;1.00;;;;;;;;;;20276247;29;20060;-81
2022/04/14 12:40:00;;;;;;;2.30;1.23;;;;;;;;;;20275719;29;20139;-83
2022/04/14 12:50:05;;;;;;;1.80;1.02;;;;;;;;;;20275137;29;20072;-82
2022/04/14 13:00:08;;;;;;;2.35;1.08;;;;;;;;;;20279633;29;20495;-81
2022/04/14 13:10:10;;;;;;;1.75;0.93;;;;;;;;;;20274425;29;20052;-82
2022/04/14 13:20:13;;;;;;;2.00;1.08;;;;;;;;;;20273124;29;20365;-82
2022/04/14 13:30:15;;;;;;;1.15;0.93;;;;;;;;;;20271825;29;20059;-82
2022/04/14 13:40:17;;;;;;;1.67;0.80;;;;;;;;;;20270962;29;20089;-82
2022/04/14 13:50:18;;;;;;;2.58;0.95;;;;;;;;;;20270648;29;20057;-82
2022/04/14 14:00:22;;;;;;;1.50;0.70;;;;;;;;;;20269365;29;20052;-82
2022/04/14 14:10:25;;;;;;;0.75;0.70;;;;;;;;;;20251530;29;20489;-82
2022/04/14 14:20:27;;;;;;;0.50;0.50;;;;;;;;;;20268448;29;20394;-82
2022/04/14 14:30:29;;;;;;;0.90;0.70;;;;;;;;;;20267505;29;20084;-81
2022/04/14 14:40:31;;;;;;;1.58;0.70;;;;;;;;;;20266468;29;20410;-82
2022/04/14 14:50:33;;;;;;;1.17;0.68;;;;;;;;;;20266238;29;20052;-82
2022/04/14 15:00:35;;;;;;;0.85;0.70;;;;;;;;;;20265245;29;20056;-82
2022/04/14 15:10:36;;;;;;;0.75;0.60;;;;;;;;;;20264776;29;20056;-82
2022/04/14 15:20:38;;;;;;;0.82;0.65;;;;;;;;;;20259213;29;20048;-81
2022/04/14 15:30:40;;;;;;;2.13;0.82;;;;;;;;;;20263675;29;20517;-82
2022/04/14 15:40:42;;;;;;;0.68;0.68;;;;;;;;;;20263903;29;20045;-82
2022/04/14 15:50:47;;;;;;;1.35;0.98;;;;;;;;;;20263796;29;20523;-84
2022/04/14 16:00:49;;;;;;;1.98;1.30;;;;;;;;;;20263039;29;20100;-84
2022/04/14 16:21:11;;;;;;;3.20;1.25;;;;;;;;;;20249681;29;20507;-84
2022/04/14 16:31:13;;;;;;;1.10;0.90;;;;;;;;;;20529139;23;20066;-83
2022/04/14 16:41:15;;;;;;;2.67;1.20;;;;;;;;;;20353190;29;20481;-84
2022/04/14 16:51:17;;;;;;;4.10;1.38;;;;;;;;;;20352706;29;20059;-83
2022/04/14 17:01:19;;;;;;;1.08;0.93;;;;;;;;;;20353523;29;20044;-84
2022/04/14 17:11:21;;;;;;;1.80;0.90;;;;;;;;;;20351574;29;20052;-83
2022/04/14 17:24:19;;;;;;;2.47;1.08;;;;;;;;;;20350874;29;20044;-84
2022/04/14 17:31:49;;;;;;;1.98;1.10;;;;;;;;;;20349977;29;20064;-83
2022/04/14 17:41:50;;;;;;;2.17;0.80;;;;;;;;;;20349676;29;20829;-83
2022/04/14 17:51:52;;;;;;;1.90;0.90;;;;;;;;;;20348933;29;20135;-85
2022/04/14 18:01:54;;;;;;;2.65;0.80;;;;;;;;;;20347798;29;20040;-86
2022/04/14 18:11:56;;;;;;;0.98;0.85;;;;;;;;;;20330507;29;20063;-85
2022/04/14 18:21:58;;;;;;;0.90;0.90;;;;;;;;;;20329455;29;20460;-84
2022/04/14 18:32:00;;;;;;;1.30;0.77;;;;;;;;;;20337464;29;20422;-86
2022/04/14 18:42:02;;;;;;;2.60;1.02;;;;;;;;;;20252997;29;20064;-83
2022/04/14 18:52:04;;;;;;;1.67;0.88;;;;;;;;;;20266243;29;20163;-86
2022/04/14 19:02:06;;;;;;;1.40;1.10;;;;;;;;;;20265202;29;20050;-83
2022/04/14 19:12:08;;;;;;;1.58;0.90;;;;;;;;;;20264722;29;20048;-83
2022/04/14 19:22:09;;;;;;;1.73;0.80;;;;;;;;;;20247832;29;20056;-84
2022/04/14 19:32:11;;;;;;;1.45;1.13;;;;;;;;;;20278677;29;20060;-83
2022/04/14 19:42:13;;;;;;;2.72;1.20;;;;;;;;;;20263781;29;20052;-84
2022/04/14 19:52:15;;;;;;;1.15;1.00;;;;;;;;;;20247008;29;20419;-84
2022/04/14 20:02:21;;;;;;;1.30;1.00;;;;;;;;;;20248025;29;20053;-83
2022/04/14 20:12:23;;;;;;;2.65;1.27;;;;;;;;;;20271244;29;20051;-84
2022/04/14 20:22:26;;;;;;;1.75;1.15;;;;;;;;;;20278098;29;20400;-83
2022/04/14 20:32:28;;;;;;;3.65;1.20;;;;;;;;;;20261821;29;20065;-83
2022/04/14 20:42:30;;;;;;;1.73;1.02;;;;;;;;;;20277340;29;20048;-82
2022/04/14 20:52:31;;;;;;;2.72;0.93;;;;;;;;;;20275429;29;20511;-83
2022/04/14 21:02:33;;;;;;;1.73;0.88;;;;;;;;;;20275709;29;20049;-82
2022/04/14 21:12:35;;;;;;;1.42;0.88;;;;;;;;;;20276898;29;20061;-82
2022/04/14 21:22:37;;;;;;;2.05;1.00;;;;;;;;;;20256117;29;20040;-84
2022/04/14 21:32:39;;;;;;;1.02;0.80;;;;;;;;;;20274250;29;20064;-84
2022/04/14 21:42:42;;;;;;;1.20;0.88;;;;;;;;;;20271623;29;20061;-85
2022/04/14 21:52:43;;;;;;;1.67;1.10;;;;;;;;;;20271251;29;20411;-85
2022/04/14 22:02:45;;;;;;;1.67;0.93;;;;;;;;;;20269915;29;20108;-82
2022/04/14 22:12:47;;;;;;;1.77;1.00;;;;;;;;;;20269088;29;20057;-82
2022/04/14 22:22:49;;;;;;;1.27;0.90;;;;;;;;;;20267891;29;20143;-82
2022/04/14 22:32:50;;;;;;;1.48;0.80;;;;;;;;;;20264883;29;20064;-83
2022/04/14 22:42:52;;;;;;;1.30;0.77;;;;;;;;;;20267019;29;20118;-83
2022/04/14 22:53:01;;;;;;;2.10;1.00;;;;;;;;;;20249675;29;20069;-83
2022/04/14 23:03:03;;;;;;;2.30;0.90;;;;;;;;;;20265803;29;20045;-82
2022/04/14 23:13:06;;;;;;;1.30;0.82;;;;;;;;;;20265483;29;20181;-82
2022/04/14 23:23:09;;;;;;;2.15;0.90;;;;;;;;;;20264574;29;20465;-82
2022/04/14 23:33:11;;;;;;;0.98;0.80;;;;;;;;;;20264137;29;20068;-82
2022/04/14 23:43:13;;;;;;;1.10;0.73;;;;;;;;;;20265386;29;20060;-82
2022/04/14 23:53:14;;;;;;;1.60;0.80;;;;;;;;;;20293970;29;20048;-82
